Time;durP1;ratioP1;P1;durP2;ratioP2;P2;SDS_P1;SDS_P2;PMS_P1;PMS_P2;Temp;Humidity;BMP_temperature;BMP_pressure;BME280_temperature;BME280_humidity;BME280_pressure;Samples;Min_cycle;Max_cycle;Signal;HPM_P1;HPM_P2
2023/05/30 00:02:15;;;;;;;1.38;1.38;;;17.20;99.90;;;;;;5075498;28;20314;-63
2023/05/30 00:04:42;;;;;;;1.08;1.08;;;17.10;99.90;;;;;;5076694;28;20210;-63
2023/05/30 00:07:10;;;;;;;1.10;1.10;;;17.10;99.90;;;;;;5077131;28;20298;-66
2023/05/30 00:09:37;;;;;;;1.10;1.10;;;17.10;99.90;;;;;;5074246;28;20229;-66
2023/05/30 00:12:05;;;;;;;1.10;1.10;;;17.10;99.90;;;;;;5075566;28;20583;-67
2023/05/30 00:14:32;;;;;;;1.15;1.15;;;17.10;99.90;;;;;;5075476;28;20214;-64
2023/05/30 00:16:58;;;;;;;1.10;1.10;;;17.00;99.90;;;;;;5075061;28;20294;-64
2023/05/30 00:19:25;;;;;;;1.00;1.00;;;17.10;99.90;;;;;;5074476;28;20322;-64
2023/05/30 00:21:52;;;;;;;1.20;1.20;;;17.20;99.90;;;;;;5075138;28;20199;-66
2023/05/30 00:24:20;;;;;;;1.02;1.02;;;17.20;99.90;;;;;;5073418;28;20258;-65
2023/05/30 00:26:47;;;;;;;1.05;1.05;;;17.20;99.90;;;;;;5068464;28;20290;-63
2023/05/30 00:29:15;;;;;;;1.17;1.17;;;17.10;99.90;;;;;;5075466;28;20306;-64
2023/05/30 00:31:42;;;;;;;1.20;1.15;;;17.00;99.90;;;;;;5075901;28;20226;-65
2023/05/30 00:34:09;;;;;;;1.35;1.25;;;16.90;99.90;;;;;;5077068;28;20295;-65
2023/05/30 00:36:36;;;;;;;1.00;1.00;;;16.90;99.90;;;;;;5077676;28;20560;-64
2023/05/30 00:39:03;;;;;;;1.00;1.00;;;16.90;99.90;;;;;;5077888;28;20247;-68
2023/05/30 00:41:31;;;;;;;1.15;1.15;;;16.90;99.90;;;;;;5079516;28;20245;-63
2023/05/30 00:43:58;;;;;;;1.10;1.10;;;16.90;99.90;;;;;;5076466;28;20299;-64
2023/05/30 00:46:29;;;;;;;1.27;1.15;;;17.00;99.90;;;;;;5075351;28;20219;-65
2023/05/30 00:48:56;;;;;;;1.00;1.00;;;16.80;99.90;;;;;;5075695;28;20183;-63
2023/05/30 00:51:27;;;;;;;1.00;1.00;;;16.80;99.90;;;;;;5074354;28;20238;-66
2023/05/30 00:53:55;;;;;;;1.00;1.00;;;16.70;99.90;;;;;;5075055;28;20621;-64
2023/05/30 00:56:23;;;;;;;1.05;1.05;;;16.70;99.90;;;;;;5074023;28;20207;-65
2023/05/30 00:58:52;;;;;;;1.10;1.10;;;16.70;99.90;;;;;;5073756;28;20269;-65
2023/05/30 01:01:19;;;;;;;1.08;1.08;;;16.60;99.90;;;;;;5073261;28;20306;-64
2023/05/30 01:03:47;;;;;;;1.10;1.10;;;16.60;99.90;;;;;;5073764;28;20524;-64
2023/05/30 01:06:15;;;;;;;1.05;1.05;;;16.40;99.90;;;;;;5073449;28;20207;-64
2023/05/30 01:08:41;;;;;;;1.08;1.08;;;16.40;99.90;;;;;;5073491;28;20212;-65
2023/05/30 01:11:18;;;;;;;1.27;1.27;;;16.30;99.90;;;;;;5072727;28;20213;-64
2023/05/30 01:13:58;;;;;;;1.10;1.10;;;16.30;99.90;;;;;;5073671;28;20211;-65
2023/05/30 01:16:29;;;;;;;1.10;1.10;;;16.30;99.90;;;;;;5074207;28;20198;-65
2023/05/30 01:19:02;;;;;;;1.05;1.05;;;16.30;99.90;;;;;;5078548;28;20223;-68
2023/05/30 01:21:31;;;;;;;1.20;1.20;;;16.30;99.90;;;;;;5075924;28;20568;-65
2023/05/30 01:24:15;;;;;;;1.23;1.23;;;16.30;99.90;;;;;;5073047;28;20284;-66
2023/05/30 01:27:06;;;;;;;1.13;1.13;;;16.20;99.90;;;;;;5073230;28;20188;-65
2023/05/30 01:29:36;;;;;;;1.27;1.27;;;16.20;99.90;;;;;;5067248;28;20219;-64
2023/05/30 01:32:05;;;;;;;1.13;1.13;;;16.10;99.90;;;;;;5071243;28;20207;-63
2023/05/30 01:34:32;;;;;;;1.20;1.20;;;16.00;99.90;;;;;;5072917;28;20552;-65
2023/05/30 01:36:59;;;;;;;1.20;1.10;;;16.00;99.90;;;;;;5073038;28;20218;-67
2023/05/30 01:39:25;;;;;;;1.25;1.25;;;16.00;99.90;;;;;;5072381;28;20327;-64
2023/05/30 01:41:57;;;;;;;1.10;1.10;;;16.00;99.90;;;;;;5072895;28;20239;-66
2023/05/30 01:44:28;;;;;;;1.10;1.10;;;16.00;99.90;;;;;;5073538;28;20689;-63
2023/05/30 01:47:02;;;;;;;1.00;1.00;;;16.00;99.90;;;;;;5072617;28;20317;-63
2023/05/30 01:49:35;;;;;;;1.40;1.30;;;16.10;99.90;;;;;;5072645;28;20667;-66
2023/05/30 01:52:07;;;;;;;1.10;1.10;;;16.00;99.90;;;;;;5073363;28;20632;-63
2023/05/30 01:54:36;;;;;;;1.10;1.10;;;16.00;99.90;;;;;;5074387;28;20213;-64
2023/05/30 01:57:07;;;;;;;1.60;1.50;;;16.00;99.90;;;;;;5076883;28;20199;-67
2023/05/30 01:59:35;;;;;;;1.10;1.10;;;15.90;99.90;;;;;;5077389;28;20230;-62
2023/05/30 02:02:05;;;;;;;1.48;1.40;;;15.90;99.90;;;;;;5078643;28;20203;-64
2023/05/30 02:04:32;;;;;;;1.20;1.20;;;16.00;99.90;;;;;;5078644;28;20213;-65
2023/05/30 02:06:59;;;;;;;1.10;1.10;;;16.00;99.90;;;;;;5075726;28;20207;-67
2023/05/30 02:09:27;;;;;;;1.30;1.20;;;16.00;99.90;;;;;;5071516;28;20273;-65
2023/05/30 02:11:54;;;;;;;1.13;1.13;;;16.20;99.90;;;;;;5072833;28;20233;-65
2023/05/30 02:14:22;;;;;;;1.00;1.00;;;16.20;99.90;;;;;;5073219;28;20206;-63
2023/05/30 02:16:49;;;;;;;1.17;1.17;;;16.20;99.90;;;;;;5072739;28;20222;-63
2023/05/30 02:19:18;;;;;;;1.13;1.13;;;16.10;99.90;;;;;;5072027;28;20237;-65
2023/05/30 02:21:45;;;;;;;1.30;1.30;;;16.20;99.90;;;;;;5072807;28;20203;-65
2023/05/30 02:24:12;;;;;;;1.10;1.10;;;16.10;99.90;;;;;;5072621;28;20207;-63
2023/05/30 02:26:39;;;;;;;1.23;1.20;;;16.10;99.90;;;;;;5074965;28;20556;-65
2023/05/30 02:29:06;;;;;;;1.10;1.10;;;16.10;99.90;;;;;;5073697;28;20310;-65
2023/05/30 02:31:33;;;;;;;1.10;1.10;;;16.10;99.90;;;;;;5072983;28;20239;-64
2023/05/30 02:33:59;;;;;;;1.17;1.17;;;16.00;99.90;;;;;;5078391;28;20386;-67
2023/05/30 02:36:28;;;;;;;1.20;1.20;;;16.00;99.90;;;;;;5081881;28;20727;-64
2023/05/30 02:38:54;;;;;;;1.10;1.10;;;16.10;99.90;;;;;;5073571;28;20225;-65
2023/05/30 02:41:22;;;;;;;1.33;1.23;;;16.10;99.90;;;;;;5071185;28;20215;-63
2023/05/30 02:43:49;;;;;;;1.00;1.00;;;16.10;99.90;;;;;;5071794;28;20203;-63
2023/05/30 02:46:16;;;;;;;1.50;1.40;;;16.20;99.90;;;;;;5071941;28;20219;-66
2023/05/30 02:48:43;;;;;;;1.00;1.00;;;16.20;99.90;;;;;;5072846;28;20234;-64
2023/05/30 02:51:10;;;;;;;1.13;1.13;;;16.10;99.90;;;;;;5071934;28;20741;-64
2023/05/30 02:53:38;;;;;;;1.50;1.40;;;16.20;99.90;;;;;;5072698;28;20203;-65
2023/05/30 02:56:05;;;;;;;1.20;1.20;;;16.20;99.90;;;;;;5072016;28;20710;-65
2023/05/30 02:58:32;;;;;;;1.20;1.20;;;16.20;99.90;;;;;;5072104;28;20317;-65
2023/05/30 03:00:59;;;;;;;1.15;1.15;;;16.10;99.90;;;;;;5070798;28;20218;-65
2023/05/30 03:03:26;;;;;;;1.27;1.27;;;16.10;99.90;;;;;;5072064;28;20203;-64
2023/05/30 03:05:53;;;;;;;1.10;1.10;;;15.90;99.90;;;;;;5072127;28;20311;-65
2023/05/30 03:08:20;;;;;;;1.20;1.10;;;15.90;99.90;;;;;;5071936;28;20734;-65
2023/05/30 03:10:48;;;;;;;1.30;1.20;;;15.90;99.90;;;;;;5070949;28;20227;-64
2023/05/30 03:13:15;;;;;;;1.10;1.10;;;15.90;99.90;;;;;;5072127;28;20295;-68
2023/05/30 03:15:42;;;;;;;1.20;1.20;;;15.90;99.90;;;;;;5075586;28;20209;-65
2023/05/30 03:18:09;;;;;;;1.10;1.10;;;15.90;99.90;;;;;;5077798;28;20207;-62
2023/05/30 03:20:36;;;;;;;1.10;1.10;;;15.90;99.90;;;;;;5073059;28;20227;-64
2023/05/30 03:23:03;;;;;;;1.30;1.30;;;15.70;99.90;;;;;;5075583;28;20704;-64
2023/05/30 03:25:30;;;;;;;1.38;1.27;;;15.70;99.90;;;;;;5075116;28;20294;-65
2023/05/30 03:27:58;;;;;;;1.30;1.20;;;15.70;99.90;;;;;;5075917;28;20577;-64
2023/05/30 03:30:26;;;;;;;1.30;1.20;;;15.50;99.90;;;;;;5075313;28;20229;-64
2023/05/30 03:32:54;;;;;;;1.40;1.30;;;15.50;99.90;;;;;;5075920;28;20207;-66
2023/05/30 03:35:21;;;;;;;1.30;1.30;;;15.50;99.90;;;;;;5078643;28;20192;-65
2023/05/30 03:37:48;;;;;;;1.38;1.38;;;15.50;99.90;;;;;;5077112;28;20205;-64
2023/05/30 03:40:15;;;;;;;1.40;1.30;;;15.50;99.90;;;;;;5074866;28;20241;-63
2023/05/30 03:42:42;;;;;;;1.33;1.20;;;15.40;99.90;;;;;;5079399;28;20271;-63
2023/05/30 03:45:11;;;;;;;1.20;1.20;;;15.30;99.90;;;;;;5085176;28;20277;-65
2023/05/30 03:47:38;;;;;;;1.30;1.30;;;15.20;99.90;;;;;;5082835;28;20211;-66
2023/05/30 03:50:05;;;;;;;1.38;1.38;;;15.20;99.90;;;;;;5083810;28;20259;-64
2023/05/30 03:52:32;;;;;;;1.10;1.10;;;15.00;99.90;;;;;;5082064;28;20203;-65
2023/05/30 03:54:59;;;;;;;1.38;1.38;;;15.00;99.90;;;;;;5077334;28;20266;-67
2023/05/30 03:57:26;;;;;;;1.10;1.10;;;15.00;99.90;;;;;;5076471;28;20215;-63
2023/05/30 03:59:53;;;;;;;1.27;1.10;;;15.10;99.90;;;;;;5075421;28;20230;-66
2023/05/30 04:02:21;;;;;;;1.50;1.40;;;15.10;99.90;;;;;;5075917;28;20602;-64
2023/05/30 04:04:48;;;;;;;1.42;1.33;;;15.10;99.90;;;;;;5074765;28;20349;-64
2023/05/30 04:07:15;;;;;;;1.40;1.30;;;15.20;99.90;;;;;;5074872;28;20210;-66
2023/05/30 04:09:42;;;;;;;1.30;1.30;;;15.20;99.90;;;;;;5073999;28;20223;-64
2023/05/30 04:12:10;;;;;;;1.30;1.30;;;15.30;99.90;;;;;;5074534;28;20295;-66
2023/05/30 04:14:36;;;;;;;1.98;1.60;;;15.40;99.90;;;;;;5074434;28;20203;-64
2023/05/30 04:17:04;;;;;;;1.48;1.20;;;15.30;99.90;;;;;;5075691;28;20577;-65
2023/05/30 04:19:32;;;;;;;1.30;1.30;;;15.40;99.90;;;;;;5074204;28;20242;-65
2023/05/30 04:21:59;;;;;;;1.40;1.30;;;15.40;99.90;;;;;;5074577;28;20793;-64
2023/05/30 04:24:26;;;;;;;1.42;1.27;;;15.40;99.90;;;;;;5072736;28;20218;-66
2023/05/30 04:26:53;;;;;;;1.50;1.40;;;15.40;99.90;;;;;;5063755;28;20191;-65
2023/05/30 04:29:20;;;;;;;1.25;1.20;;;15.50;99.90;;;;;;5066109;28;20221;-66
2023/05/30 04:31:48;;;;;;;1.67;1.58;;;15.50;99.90;;;;;;5073598;28;20215;-64
2023/05/30 04:34:17;;;;;;;1.67;1.58;;;15.50;99.90;;;;;;5074394;28;20213;-65
2023/05/30 04:36:46;;;;;;;1.60;1.50;;;15.50;99.90;;;;;;5073421;28;20620;-65
2023/05/30 04:39:13;;;;;;;1.25;1.25;;;15.50;99.90;;;;;;5066913;28;20601;-64
2023/05/30 04:41:40;;;;;;;1.30;1.30;;;15.40;99.90;;;;;;5066108;28;20208;-65
2023/05/30 04:44:08;;;;;;;1.65;1.40;;;15.50;99.90;;;;;;5064139;28;20215;-64
2023/05/30 04:46:36;;;;;;;1.45;1.42;;;15.50;99.90;;;;;;5064487;28;20245;-64
2023/05/30 04:49:03;;;;;;;1.63;1.50;;;15.50;99.90;;;;;;5055524;28;20204;-62
2023/05/30 04:51:30;;;;;;;1.50;1.40;;;15.50;99.90;;;;;;5076688;28;20294;-62
2023/05/30 04:53:58;;;;;;;1.60;1.50;;;15.60;99.90;;;;;;5074609;28;20206;-64
2023/05/30 04:56:26;;;;;;;1.40;1.30;;;15.60;99.90;;;;;;5073760;28;20215;-62
2023/05/30 04:58:53;;;;;;;1.70;1.60;;;15.80;99.90;;;;;;5073817;28;20219;-62
2023/05/30 05:01:21;;;;;;;1.50;1.40;;;15.80;99.90;;;;;;5072075;28;20743;-63
2023/05/30 05:03:47;;;;;;;1.50;1.40;;;16.00;99.90;;;;;;5073828;28;20237;-62
2023/05/30 05:06:14;;;;;;;1.67;1.58;;;16.00;99.90;;;;;;5074360;28;20203;-64
2023/05/30 05:08:41;;;;;;;2.90;1.60;;;16.00;99.90;;;;;;5074036;28;20298;-63
2023/05/30 05:11:10;;;;;;;1.60;1.50;;;16.00;99.90;;;;;;5072868;28;20223;-64
2023/05/30 05:13:36;;;;;;;1.73;1.50;;;16.10;99.90;;;;;;5073457;28;20303;-61
2023/05/30 05:16:06;;;;;;;1.50;1.40;;;16.30;99.90;;;;;;5073889;28;20200;-63
2023/05/30 05:18:33;;;;;;;2.00;1.50;;;16.40;99.90;;;;;;5065652;28;20206;-62
2023/05/30 05:21:00;;;;;;;1.30;1.20;;;16.50;99.90;;;;;;5073226;28;20603;-63
2023/05/30 05:23:28;;;;;;;1.80;1.48;;;16.70;99.90;;;;;;5073953;28;20275;-62
2023/05/30 05:25:54;;;;;;;1.50;1.30;;;16.90;99.90;;;;;;5083257;28;20292;-63
2023/05/30 05:28:23;;;;;;;1.60;1.50;;;16.90;99.90;;;;;;5085006;28;20637;-63
2023/05/30 05:30:49;;;;;;;1.25;1.25;;;17.00;99.90;;;;;;5077784;28;20300;-63
2023/05/30 05:33:16;;;;;;;1.40;1.30;;;17.10;99.90;;;;;;5071005;28;20299;-63
2023/05/30 05:35:45;;;;;;;2.00;1.50;;;17.10;99.90;;;;;;5073416;28;20303;-63
2023/05/30 05:38:12;;;;;;;1.58;1.48;;;17.30;99.90;;;;;;5074443;28;20203;-63
2023/05/30 05:40:39;;;;;;;1.70;1.60;;;17.40;99.90;;;;;;5074320;28;20227;-63
2023/05/30 05:43:06;;;;;;;1.65;1.55;;;17.50;99.90;;;;;;5074807;28;20666;-62
2023/05/30 05:45:34;;;;;;;1.45;1.40;;;17.50;99.90;;;;;;5073937;28;20211;-64
2023/05/30 05:48:01;;;;;;;1.48;1.38;;;17.70;99.90;;;;;;5073735;28;20209;-65
2023/05/30 05:50:28;;;;;;;1.60;1.48;;;17.70;99.90;;;;;;5072060;28;20246;-64
2023/05/30 05:52:55;;;;;;;1.50;1.40;;;17.80;99.90;;;;;;5073635;28;20207;-65
2023/05/30 05:55:22;;;;;;;1.58;1.48;;;17.90;99.90;;;;;;5072880;28;20207;-64
2023/05/30 05:57:48;;;;;;;2.03;1.40;;;18.00;99.90;;;;;;5072956;28;20596;-64
2023/05/30 06:00:16;;;;;;;1.50;1.40;;;18.10;99.90;;;;;;5072420;28;20250;-64
2023/05/30 06:02:44;;;;;;;1.25;1.23;;;18.10;99.90;;;;;;5074152;28;20210;-64
2023/05/30 06:05:11;;;;;;;1.40;1.30;;;18.20;99.90;;;;;;5075001;28;20688;-64
2023/05/30 06:07:38;;;;;;;1.30;1.30;;;18.20;99.90;;;;;;5074779;28;20211;-64
2023/05/30 06:10:06;;;;;;;1.42;1.23;;;18.10;99.90;;;;;;5074040;28;20710;-65
2023/05/30 06:12:33;;;;;;;1.70;1.60;;;18.20;99.90;;;;;;5075313;28;20210;-64
2023/05/30 06:14:59;;;;;;;1.60;1.50;;;18.30;99.90;;;;;;5074345;28;20203;-62
2023/05/30 06:17:26;;;;;;;1.70;1.60;;;18.40;99.90;;;;;;5074413;28;20678;-64
2023/05/30 06:19:54;;;;;;;1.92;1.75;;;18.40;99.90;;;;;;5072093;28;20227;-62
2023/05/30 06:22:21;;;;;;;1.75;1.65;;;18.40;99.90;;;;;;5071154;28;20576;-64
2023/05/30 06:24:49;;;;;;;1.45;1.45;;;18.40;99.90;;;;;;5073227;28;20199;-63
2023/05/30 06:27:16;;;;;;;1.60;1.50;;;18.40;99.90;;;;;;5072074;28;20617;-63
2023/05/30 06:29:43;;;;;;;1.60;1.50;;;18.50;99.90;;;;;;5072340;28;20230;-62
2023/05/30 06:32:10;;;;;;;1.80;1.70;;;18.50;99.90;;;;;;5071813;28;20207;-65
2023/05/30 06:34:37;;;;;;;1.67;1.58;;;18.60;99.90;;;;;;5073669;28;20233;-64
2023/05/30 06:37:06;;;;;;;1.67;1.48;;;18.70;99.90;;;;;;5071878;28;20607;-63
2023/05/30 06:39:32;;;;;;;1.48;1.38;;;18.70;99.90;;;;;;5071389;28;20265;-64
2023/05/30 06:42:00;;;;;;;1.60;1.50;;;18.70;99.90;;;;;;5072428;28;20223;-63
2023/05/30 06:44:27;;;;;;;1.77;1.67;;;18.70;99.90;;;;;;5071552;28;20203;-63
2023/05/30 06:46:55;;;;;;;1.60;1.50;;;18.90;99.90;;;;;;5071743;28;20740;-63
2023/05/30 06:49:22;;;;;;;1.70;1.60;;;18.90;99.90;;;;;;5071069;28;20693;-63
2023/05/30 06:51:49;;;;;;;1.63;1.50;;;19.10;99.90;;;;;;5071104;28;20231;-65
2023/05/30 06:54:17;;;;;;;1.63;1.52;;;19.20;99.90;;;;;;5071139;28;20735;-64
2023/05/30 06:56:44;;;;;;;1.75;1.65;;;19.20;99.90;;;;;;5072059;28;20229;-65
2023/05/30 06:59:11;;;;;;;1.70;1.60;;;19.30;99.90;;;;;;5071092;28;20268;-63
2023/05/30 07:01:37;;;;;;;1.38;1.27;;;19.40;99.90;;;;;;5071654;28;20207;-62
2023/05/30 07:04:05;;;;;;;1.67;1.58;;;19.50;99.90;;;;;;5072942;28;20203;-63
2023/05/30 07:06:31;;;;;;;1.50;1.40;;;19.60;99.90;;;;;;5071839;28;20581;-64
2023/05/30 07:08:58;;;;;;;1.92;1.83;;;19.60;99.90;;;;;;5071315;28;20213;-65
2023/05/30 07:11:26;;;;;;;1.60;1.50;;;19.60;99.90;;;;;;5071231;28;20204;-63
2023/05/30 07:13:53;;;;;;;1.75;1.65;;;19.60;99.90;;;;;;5071757;28;20211;-65
2023/05/30 07:16:20;;;;;;;1.40;1.30;;;19.70;99.90;;;;;;5071676;28;20217;-65
2023/05/30 07:18:47;;;;;;;1.80;1.70;;;19.80;99.90;;;;;;5071636;28;20242;-64
2023/05/30 07:21:14;;;;;;;1.58;1.48;;;20.10;99.90;;;;;;5070576;28;20738;-66
2023/05/30 07:23:41;;;;;;;1.55;1.40;;;20.10;99.90;;;;;;5076387;28;20584;-65
2023/05/30 07:26:08;;;;;;;1.90;1.75;;;20.10;99.90;;;;;;5076053;28;20217;-66
2023/05/30 07:28:36;;;;;;;1.60;1.50;;;20.10;99.90;;;;;;5071518;28;20208;-65
2023/05/30 07:31:03;;;;;;;1.63;1.52;;;20.10;99.90;;;;;;5071217;28;20219;-65
2023/05/30 07:33:31;;;;;;;1.45;1.35;;;20.20;99.90;;;;;;5073156;28;20647;-64
2023/05/30 07:35:57;;;;;;;2.83;1.50;;;20.30;99.90;;;;;;5075943;28;20232;-65
2023/05/30 07:38:24;;;;;;;1.60;1.50;;;20.40;99.90;;;;;;5072263;28;20207;-65
2023/05/30 07:40:51;;;;;;;1.67;1.58;;;20.40;99.90;;;;;;5071128;28;20223;-64
2023/05/30 07:43:18;;;;;;;1.73;1.63;;;20.40;99.90;;;;;;5071155;28;20207;-64
2023/05/30 07:45:46;;;;;;;1.88;1.40;;;20.50;99.90;;;;;;5071767;28;20219;-65
2023/05/30 07:48:14;;;;;;;1.33;1.33;;;20.50;99.90;;;;;;5071522;28;20219;-66
2023/05/30 07:50:40;;;;;;;1.73;1.63;;;20.50;99.90;;;;;;5071940;28;20224;-66
2023/05/30 07:53:07;;;;;;;1.70;1.60;;;20.70;99.90;;;;;;5071663;28;20223;-65
2023/05/30 07:55:34;;;;;;;1.40;1.40;;;20.90;99.90;;;;;;5071441;28;20203;-66
2023/05/30 07:58:01;;;;;;;1.42;1.33;;;20.90;99.90;;;;;;5071289;28;20670;-65
2023/05/30 08:00:28;;;;;;;1.30;1.30;;;21.00;99.90;;;;;;5070907;28;20276;-65
2023/05/30 08:02:57;;;;;;;2.28;1.80;;;21.00;99.90;;;;;;5070960;28;20199;-66
2023/05/30 08:05:23;;;;;;;1.40;1.30;;;21.00;99.90;;;;;;5073117;28;20207;-65
2023/05/30 08:07:50;;;;;;;2.05;1.40;;;20.90;99.90;;;;;;5075050;28;20733;-65
2023/05/30 08:10:17;;;;;;;1.50;1.40;;;21.00;99.90;;;;;;5074165;28;20780;-65
2023/05/30 08:12:44;;;;;;;1.60;1.50;;;21.10;99.90;;;;;;5075387;28;20207;-66
2023/05/30 08:15:11;;;;;;;1.65;1.50;;;21.20;99.90;;;;;;5078220;28;20199;-65
2023/05/30 08:17:40;;;;;;;1.50;1.40;;;21.10;99.90;;;;;;5075602;28;20203;-66
2023/05/30 08:20:10;;;;;;;1.85;1.60;;;21.20;99.90;;;;;;5078512;28;20237;-65
2023/05/30 08:22:37;;;;;;;1.60;1.50;;;21.30;99.90;;;;;;5074753;28;20203;-66
2023/05/30 08:25:05;;;;;;;1.73;1.63;;;21.30;99.90;;;;;;5074826;28;20207;-67
2023/05/30 08:27:32;;;;;;;1.83;1.73;;;21.30;99.90;;;;;;5076067;28;20234;-67
2023/05/30 08:29:59;;;;;;;1.70;1.60;;;21.30;99.90;;;;;;5077335;28;20216;-67
2023/05/30 08:32:27;;;;;;;1.30;1.30;;;21.30;99.90;;;;;;5073704;28;20218;-66
2023/05/30 08:34:54;;;;;;;2.45;1.58;;;21.30;99.90;;;;;;5074025;28;20680;-66
2023/05/30 08:37:22;;;;;;;1.85;1.63;;;21.40;99.90;;;;;;5074520;28;20207;-66
2023/05/30 08:39:49;;;;;;;1.50;1.40;;;21.40;99.90;;;;;;5074096;28;20277;-64
2023/05/30 08:42:16;;;;;;;1.60;1.50;;;21.50;99.90;;;;;;5074547;28;20229;-63
2023/05/30 08:44:43;;;;;;;1.42;1.33;;;21.60;99.90;;;;;;5073975;28;20213;-63
2023/05/30 08:47:12;;;;;;;1.77;1.67;;;21.70;99.90;;;;;;5074325;28;20215;-63
2023/05/30 08:49:42;;;;;;;1.30;1.30;;;21.70;99.90;;;;;;5073161;28;20280;-62
2023/05/30 08:52:12;;;;;;;1.30;1.20;;;21.80;99.90;;;;;;5074252;28;20214;-62
2023/05/30 08:54:45;;;;;;;1.45;1.30;;;22.00;99.90;;;;;;5074247;28;20274;-62
2023/05/30 08:57:18;;;;;;;1.60;1.50;;;22.10;99.90;;;;;;5073892;28;20214;-63
2023/05/30 08:59:47;;;;;;;1.15;1.15;;;22.10;99.90;;;;;;5073291;28;20223;-63
2023/05/30 09:02:15;;;;;;;1.90;1.70;;;22.10;99.90;;;;;;5073139;28;20581;-63
2023/05/30 09:04:43;;;;;;;1.70;1.60;;;22.00;99.90;;;;;;5073638;28;20225;-62
2023/05/30 09:07:12;;;;;;;1.40;1.30;;;21.90;99.90;;;;;;5074279;28;20216;-61
2023/05/30 09:09:42;;;;;;;1.27;1.27;;;21.90;99.90;;;;;;5084511;28;20230;-62
2023/05/30 09:12:09;;;;;;;2.22;1.60;;;22.20;99.90;;;;;;5090200;28;20200;-64
2023/05/30 09:14:37;;;;;;;1.45;1.35;;;22.30;99.90;;;;;;5089556;28;20204;-64
2023/05/30 09:17:04;;;;;;;1.50;1.40;;;22.30;99.90;;;;;;5085616;28;20620;-64
2023/05/30 09:19:31;;;;;;;1.33;1.30;;;22.50;99.90;;;;;;5081371;28;20314;-64
2023/05/30 09:21:58;;;;;;;1.27;1.25;;;22.70;99.90;;;;;;5073952;28;20238;-64
2023/05/30 09:24:44;;;;;;;1.50;1.40;;;22.60;99.90;;;;;;5074096;28;20203;-64
2023/05/30 09:27:13;;;;;;;1.58;1.48;;;22.50;99.90;;;;;;5073990;28;20682;-63
2023/05/30 09:29:43;;;;;;;1.65;1.55;;;22.50;99.90;;;;;;5072952;28;20279;-63
2023/05/30 09:32:10;;;;;;;1.60;1.50;;;22.60;99.90;;;;;;5073465;28;20204;-64
2023/05/30 09:34:37;;;;;;;1.50;1.40;;;22.50;99.90;;;;;;5073003;28;20233;-63
2023/05/30 09:37:05;;;;;;;1.70;1.60;;;22.70;99.90;;;;;;5073125;28;20257;-63
2023/05/30 09:39:32;;;;;;;1.60;1.50;;;22.80;99.90;;;;;;5073179;28;20232;-64
2023/05/30 09:41:59;;;;;;;1.55;1.45;;;22.90;99.90;;;;;;5073040;28;20218;-64
2023/05/30 09:44:28;;;;;;;16.67;15.63;;;22.80;99.90;;;;;;5073362;28;20202;-63
2023/05/30 09:46:58;;;;;;;1.30;1.30;;;22.90;99.90;;;;;;5072940;28;20215;-63
2023/05/30 09:49:27;;;;;;;1.90;1.40;;;23.10;99.90;;;;;;5072123;28;20773;-64
2023/05/30 09:51:54;;;;;;;1.27;1.27;;;23.10;99.90;;;;;;5072978;28;20701;-64
2023/05/30 09:54:21;;;;;;;1.80;1.70;;;23.10;99.90;;;;;;5073200;28;20575;-66
2023/05/30 09:56:48;;;;;;;1.83;1.50;;;23.00;99.90;;;;;;5074862;28;20213;-65
2023/05/30 09:59:15;;;;;;;1.67;1.58;;;22.90;99.90;;;;;;5072404;28;20227;-65
2023/05/30 10:01:45;;;;;;;1.88;1.58;;;22.90;99.90;;;;;;5072047;28;20229;-65
2023/05/30 10:04:14;;;;;;;1.90;1.80;;;22.90;99.90;;;;;;5067398;28;20628;-66
2023/05/30 10:06:43;;;;;;;1.45;1.35;;;22.70;99.90;;;;;;5072429;28;20293;-65
2023/05/30 10:09:11;;;;;;;1.55;1.45;;;22.60;99.90;;;;;;5071765;28;20298;-65
2023/05/30 10:11:39;;;;;;;1.85;1.70;;;22.70;99.90;;;;;;5072315;28;20688;-64
2023/05/30 10:14:06;;;;;;;2.72;2.63;;;22.90;99.90;;;;;;5072646;28;20191;-66
2023/05/30 10:16:35;;;;;;;1.60;1.45;;;22.90;99.90;;;;;;5072633;28;20261;-65
2023/05/30 10:19:07;;;;;;;1.80;1.70;;;23.10;99.90;;;;;;5072043;28;20211;-64
2023/05/30 10:21:37;;;;;;;1.77;1.48;;;23.30;99.90;;;;;;5072576;28;20268;-64
2023/05/30 10:24:05;;;;;;;2.35;1.50;;;23.40;99.90;;;;;;5072896;28;20238;-66
2023/05/30 10:26:35;;;;;;;1.33;1.33;;;23.40;99.90;;;;;;5072470;28;20210;-66
2023/05/30 10:29:06;;;;;;;1.63;1.52;;;23.40;99.90;;;;;;5071925;28;20191;-64
2023/05/30 10:31:34;;;;;;;1.45;1.40;;;23.60;99.90;;;;;;5072857;28;20199;-64
2023/05/30 10:34:05;;;;;;;2.33;1.40;;;23.60;99.90;;;;;;5072455;28;20203;-64
2023/05/30 10:36:34;;;;;;;1.20;1.20;;;23.70;99.90;;;;;;5073097;28;20586;-66
2023/05/30 10:39:09;;;;;;;1.60;1.40;;;23.80;99.90;;;;;;5072156;28;20209;-66
2023/05/30 10:41:42;;;;;;;1.35;1.25;;;24.00;99.90;;;;;;5072452;28;20272;-65
2023/05/30 10:44:17;;;;;;;1.42;1.33;;;24.10;99.90;;;;;;5071735;28;20207;-65
2023/05/30 10:46:54;;;;;;;1.52;1.42;;;24.30;99.90;;;;;;5052794;28;20222;-65
2023/05/30 10:49:26;;;;;;;2.58;1.50;;;24.20;99.90;;;;;;5051520;28;20258;-65
2023/05/30 10:52:00;;;;;;;1.60;1.42;;;24.20;99.90;;;;;;5050807;28;20207;-66
2023/05/30 10:54:30;;;;;;;1.42;1.30;;;24.40;99.90;;;;;;5052092;28;20210;-65
2023/05/30 10:56:57;;;;;;;1.75;1.65;;;24.40;99.90;;;;;;5052355;28;20239;-65
2023/05/30 10:59:24;;;;;;;1.30;1.20;;;24.50;99.90;;;;;;5051545;28;20897;-64
2023/05/30 11:02:00;;;;;;;1.77;1.65;;;24.40;99.90;;;;;;5051780;28;20229;-64
2023/05/30 11:04:34;;;;;;;1.50;1.40;;;24.30;99.90;;;;;;5051891;28;20552;-64
2023/05/30 11:07:03;;;;;;;1.25;1.25;;;24.30;99.90;;;;;;5052176;28;20275;-67
2023/05/30 11:09:30;;;;;;;1.38;1.35;;;24.40;99.90;;;;;;5051063;28;20323;-66
2023/05/30 11:11:58;;;;;;;1.70;1.60;;;24.50;99.90;;;;;;5051950;28;20621;-65
2023/05/30 11:14:26;;;;;;;1.30;1.30;;;24.60;99.90;;;;;;5052060;28;20204;-64
2023/05/30 11:17:00;;;;;;;1.67;1.58;;;24.70;99.90;;;;;;5052624;28;20204;-64
2023/05/30 11:19:27;;;;;;;1.55;1.45;;;24.90;99.90;;;;;;5051089;28;20858;-64
2023/05/30 11:21:56;;;;;;;1.63;1.52;;;24.90;99.90;;;;;;5057741;28;20223;-65
2023/05/30 11:24:23;;;;;;;2.25;2.15;;;24.80;99.90;;;;;;5051932;28;20200;-66
2023/05/30 11:27:01;;;;;;;1.50;1.40;;;24.80;99.90;;;;;;5051877;28;20211;-63
2023/05/30 11:29:36;;;;;;;1.30;1.20;;;24.90;99.90;;;;;;5050827;28;20285;-65
2023/05/30 11:32:05;;;;;;;1.58;1.48;;;25.00;99.90;;;;;;5051772;28;20762;-65
2023/05/30 11:34:32;;;;;;;1.60;1.50;;;25.00;99.90;;;;;;5051951;28;20239;-65
2023/05/30 11:37:00;;;;;;;1.42;1.38;;;25.10;99.90;;;;;;5051655;28;20208;-64
2023/05/30 11:39:28;;;;;;;3.10;1.50;;;25.10;99.90;;;;;;5051015;28;20243;-64
2023/05/30 11:41:55;;;;;;;1.63;1.52;;;25.20;99.90;;;;;;5054276;28;20231;-64
2023/05/30 11:44:23;;;;;;;1.50;1.40;;;25.20;99.90;;;;;;5056008;28;20238;-66
2023/05/30 11:47:00;;;;;;;2.25;1.40;;;25.30;99.90;;;;;;5058280;28;20239;-64
2023/05/30 11:49:27;;;;;;;1.40;1.33;;;25.60;99.90;;;;;;5068208;28;20211;-64
2023/05/30 11:51:54;;;;;;;1.45;1.35;;;25.60;99.90;;;;;;5083442;28;20277;-65
2023/05/30 11:54:23;;;;;;;1.30;1.20;;;25.80;99.90;;;;;;5085127;28;20207;-64
2023/05/30 11:56:51;;;;;;;1.63;1.30;;;25.90;99.90;;;;;;5079296;28;20207;-65
2023/05/30 11:59:19;;;;;;;1.70;1.60;;;26.10;99.90;;;;;;5074786;28;20227;-65
2023/05/30 12:01:57;;;;;;;1.88;1.40;;;26.00;99.90;;;;;;5077004;28;20277;-64
2023/05/30 12:04:26;;;;;;;1.75;1.58;;;26.00;99.90;;;;;;5075641;28;20222;-65
2023/05/30 12:06:53;;;;;;;1.30;1.20;;;25.90;99.90;;;;;;5074491;28;20199;-65
2023/05/30 12:09:21;;;;;;;2.10;1.50;;;25.80;99.90;;;;;;5074058;28;20262;-65
2023/05/30 12:11:56;;;;;;;2.15;1.60;;;25.80;99.90;;;;;;5074978;28;20217;-65
2023/05/30 12:14:31;;;;;;;1.35;1.30;;;26.10;99.90;;;;;;5075046;28;20203;-65
2023/05/30 12:16:58;;;;;;;1.45;1.35;;;26.20;99.90;;;;;;5074634;28;20223;-66
2023/05/30 12:19:29;;;;;;;1.30;1.20;;;26.10;99.90;;;;;;5075707;28;21146;-64
2023/05/30 12:21:56;;;;;;;1.30;1.20;;;26.00;99.90;;;;;;5074984;28;20372;-66
2023/05/30 12:24:25;;;;;;;2.55;1.33;;;26.00;99.90;;;;;;5074357;28;20294;-64
2023/05/30 12:26:56;;;;;;;1.38;1.27;;;26.20;99.90;;;;;;5074835;28;20207;-65
2023/05/30 12:29:25;;;;;;;1.35;1.27;;;26.40;99.90;;;;;;5073562;28;20748;-64
2023/05/30 12:31:52;;;;;;;2.65;1.50;;;26.50;99.90;;;;;;5078797;28;20199;-65
2023/05/30 12:34:20;;;;;;;2.05;1.38;;;26.70;99.90;;;;;;5076641;28;20265;-63
2023/05/30 12:36:47;;;;;;;1.77;1.67;;;26.80;99.90;;;;;;5074947;28;20294;-62
2023/05/30 12:39:15;;;;;;;1.63;1.52;;;26.80;99.90;;;;;;5074582;28;20709;-63
2023/05/30 12:41:43;;;;;;;1.70;1.60;;;26.70;99.90;;;;;;5075571;28;20623;-62
2023/05/30 12:44:17;;;;;;;1.70;1.60;;;26.50;99.90;;;;;;5075110;28;20240;-62
2023/05/30 12:46:44;;;;;;;1.42;1.20;;;26.20;99.90;;;;;;5075037;28;20207;-65
2023/05/30 12:49:11;;;;;;;1.58;1.48;;;26.10;99.90;;;;;;5074371;28;20227;-62
2023/05/30 12:51:38;;;;;;;1.30;1.30;;;26.20;99.90;;;;;;5074845;28;20204;-64
2023/05/30 12:54:06;;;;;;;2.58;1.48;;;26.50;99.90;;;;;;5074036;28;20218;-64